Time;durP1;ratioP1;P1;durP2;ratioP2;P2;SDS_P1;SDS_P2;PMS_P1;PMS_P2;Temp;Humidity;BMP_temperature;BMP_pressure;BME280_temperature;BME280_humidity;BME280_pressure;Samples;Min_cycle;Max_cycle;Signal;HPM_P1;HPM_P2
2023/02/11 00:03:51;;;;;;;24.48;9.63;;;-4.90;99.90;;;;;;8232945;28;20077;-78
2023/02/11 00:07:51;;;;;;;23.75;10.98;;;-5.10;99.90;;;;;;8230833;28;20034;-78
2023/02/11 00:11:52;;;;;;;17.33;7.05;;;-5.20;99.90;;;;;;8233204;28;20439;-79
2023/02/11 00:15:53;;;;;;;17.42;8.40;;;-5.20;99.90;;;;;;8226812;28;20062;-79
2023/02/11 00:19:54;;;;;;;15.52;8.23;;;-5.20;99.90;;;;;;8230606;28;20118;-78
2023/02/11 00:23:58;;;;;;;15.30;7.93;;;-5.30;99.90;;;;;;8233766;28;20628;-78
2023/02/11 00:27:59;;;;;;;13.93;6.82;;;-5.30;99.90;;;;;;8230040;28;20035;-78
2023/02/11 00:32:04;;;;;;;16.02;7.10;;;-5.40;99.90;;;;;;8232676;28;20086;-78
2023/02/11 00:36:06;;;;;;;19.83;8.30;;;-5.20;99.90;;;;;;8230798;28;20023;-78
2023/02/11 00:40:07;;;;;;;16.92;7.97;;;-4.90;99.90;;;;;;8233249;28;20027;-79
2023/02/11 00:44:07;;;;;;;18.08;8.55;;;-4.90;99.90;;;;;;8232065;28;20129;-77
2023/02/11 00:48:08;;;;;;;13.23;7.78;;;-4.90;99.90;;;;;;8232605;28;20026;-77
2023/02/11 00:52:08;;;;;;;18.73;8.38;;;-4.90;99.90;;;;;;8232584;28;20030;-78
2023/02/11 00:56:09;;;;;;;20.50;8.63;;;-4.80;99.90;;;;;;8229194;28;20023;-77
2023/02/11 01:00:12;;;;;;;14.93;8.13;;;-4.90;99.90;;;;;;8231185;28;20023;-78
2023/02/11 01:04:13;;;;;;;25.08;8.25;;;-5.00;99.90;;;;;;8228139;28;20023;-78
2023/02/11 01:08:13;;;;;;;26.52;11.57;;;-5.20;99.90;;;;;;8230607;28;20069;-77
2023/02/11 01:12:14;;;;;;;20.80;9.20;;;-5.20;99.90;;;;;;8230917;28;20074;-77
2023/02/11 01:16:15;;;;;;;18.25;7.70;;;-5.30;99.90;;;;;;8230262;28;20026;-77
2023/02/11 01:20:22;;;;;;;20.35;8.23;;;-5.40;99.90;;;;;;8231337;28;20062;-78
2023/02/11 01:24:22;;;;;;;14.70;8.18;;;-5.60;99.90;;;;;;8231645;28;20023;-77
2023/02/11 01:28:25;;;;;;;17.17;8.85;;;-5.50;99.90;;;;;;8230409;28;20026;-77
2023/02/11 01:32:26;;;;;;;14.70;6.55;;;-5.50;99.90;;;;;;8230178;28;20076;-79
2023/02/11 01:36:26;;;;;;;14.88;7.82;;;-5.40;99.90;;;;;;8230992;28;20031;-78
2023/02/11 01:40:27;;;;;;;17.27;7.65;;;-5.50;99.90;;;;;;8229815;28;20033;-79
2023/02/11 01:44:31;;;;;;;12.82;7.07;;;-5.60;99.90;;;;;;8229741;28;20046;-77
2023/02/11 01:48:36;;;;;;;17.80;8.13;;;-5.70;99.90;;;;;;8229483;28;20057;-78
2023/02/11 01:52:39;;;;;;;27.23;10.43;;;-5.80;99.90;;;;;;8229766;28;20101;-77
2023/02/11 02:01:07;;;;;;;40.00;11.85;;;-6.00;99.90;;;;;;8230765;28;20139;-78
2023/02/11 02:05:18;;;;;;;32.95;12.35;;;-5.90;99.90;;;;;;8226049;28;20035;-77
2023/02/11 02:09:26;;;;;;;31.05;10.02;;;-6.00;99.90;;;;;;8228918;28;20026;-77
2023/02/11 02:13:30;;;;;;;19.42;9.07;;;-6.00;99.90;;;;;;8229827;28;20022;-76
2023/02/11 02:17:43;;;;;;;28.05;8.07;;;-5.80;99.90;;;;;;8228700;28;20073;-78
2023/02/11 02:22:14;;;;;;;19.38;5.82;;;-5.50;99.90;;;;;;8228929;28;20052;-77
2023/02/11 02:27:02;;;;;;;19.13;9.10;;;-5.50;99.90;;;;;;8226613;28;20023;-77
2023/02/11 02:31:28;;;;;;;16.13;7.30;;;-5.20;99.90;;;;;;8183226;28;20432;-78
2023/02/11 02:35:51;;;;;;;21.65;9.27;;;-5.50;99.90;;;;;;8219061;28;20027;-77
2023/02/11 02:39:51;;;;;;;17.20;5.85;;;-5.60;99.90;;;;;;8238276;28;20153;-76
2023/02/11 02:43:52;;;;;;;24.48;8.43;;;-5.70;99.90;;;;;;8223531;28;20038;-77
2023/02/11 02:47:53;;;;;;;12.45;7.65;;;-5.60;99.90;;;;;;8226634;28;20507;-76
2023/02/11 02:52:14;;;;;;;14.60;8.07;;;-5.70;99.90;;;;;;8227928;28;20102;-77
2023/02/11 02:56:53;;;;;;;9.88;3.75;;;-5.60;99.90;;;;;;8222952;28;20027;-75
2023/02/11 03:01:17;;;;;;;20.63;8.65;;;-5.10;99.90;;;;;;8239399;28;20057;-77
2023/02/11 03:05:33;;;;;;;10.70;6.50;;;-5.20;99.90;;;;;;8222033;28;20035;-77
2023/02/11 03:09:48;;;;;;;14.77;6.82;;;-5.50;99.90;;;;;;8227902;28;20030;-77
2023/02/11 03:13:51;;;;;;;13.85;7.55;;;-5.80;99.90;;;;;;8222226;28;20027;-77
2023/02/11 03:17:55;;;;;;;14.68;6.88;;;-5.70;99.90;;;;;;8227580;28;20026;-77
2023/02/11 03:21:56;;;;;;;15.75;6.70;;;-5.80;99.90;;;;;;8229379;28;20555;-77
2023/02/11 03:26:07;;;;;;;9.25;5.70;;;-5.90;99.90;;;;;;8223847;28;20497;-78
2023/02/11 03:30:17;;;;;;;22.33;8.38;;;-5.70;99.90;;;;;;8228537;28;20023;-78
2023/02/11 03:34:42;;;;;;;17.30;6.80;;;-5.50;99.90;;;;;;8228384;28;20033;-78
2023/02/11 03:38:48;;;;;;;16.17;7.38;;;-5.40;99.90;;;;;;8228266;28;20491;-77
2023/02/11 03:42:56;;;;;;;11.52;5.70;;;-5.40;99.90;;;;;;8228066;28;20026;-76
2023/02/11 03:46:57;;;;;;;16.57;7.23;;;-5.50;99.90;;;;;;8225620;28;20035;-77
2023/02/11 03:51:02;;;;;;;20.45;8.13;;;-5.60;99.90;;;;;;8227847;28;20035;-78
2023/02/11 03:55:09;;;;;;;11.40;6.25;;;-5.40;99.90;;;;;;8229108;28;20102;-76
2023/02/11 03:59:10;;;;;;;18.25;7.00;;;-5.30;99.90;;;;;;8228069;28;20033;-78
2023/02/11 04:03:12;;;;;;;15.68;7.15;;;-5.40;99.90;;;;;;8228498;28;20031;-77
2023/02/11 04:07:12;;;;;;;21.35;7.13;;;-5.40;99.90;;;;;;8227254;28;20026;-78
2023/02/11 04:11:13;;;;;;;15.30;5.63;;;-5.50;99.90;;;;;;8226616;28;20110;-77
2023/02/11 04:15:13;;;;;;;16.65;7.85;;;-5.30;99.90;;;;;;8232182;28;20026;-77
2023/02/11 04:19:14;;;;;;;12.50;6.38;;;-5.10;99.90;;;;;;8233626;28;20483;-77
2023/02/11 04:23:14;;;;;;;22.85;7.75;;;-5.10;99.90;;;;;;8233585;28;20107;-78
2023/02/11 04:27:15;;;;;;;13.30;7.45;;;-5.10;99.90;;;;;;8231672;28;20029;-77
2023/02/11 04:31:16;;;;;;;16.77;7.15;;;-5.10;99.90;;;;;;8232473;28;20062;-77
2023/02/11 04:35:16;;;;;;;19.08;9.48;;;-5.10;99.90;;;;;;8233720;28;20027;-78
2023/02/11 04:39:17;;;;;;;16.63;8.52;;;-5.10;99.90;;;;;;8224270;28;20114;-77
2023/02/11 04:43:18;;;;;;;16.25;6.95;;;-5.10;99.90;;;;;;8223366;28;20027;-77
2023/02/11 04:47:18;;;;;;;14.85;7.18;;;-5.20;99.90;;;;;;8215553;28;20061;-78
2023/02/11 04:51:19;;;;;;;17.38;8.55;;;-5.20;99.90;;;;;;8229668;28;20023;-77
2023/02/11 04:55:19;;;;;;;12.27;6.55;;;-5.20;99.90;;;;;;8228915;28;20050;-77
2023/02/11 04:59:20;;;;;;;22.75;8.20;;;-4.60;99.90;;;;;;8226072;28;20028;-78
2023/02/11 05:03:20;;;;;;;16.75;8.55;;;-4.70;99.90;;;;;;8228155;28;20037;-78
2023/02/11 05:07:21;;;;;;;15.30;7.50;;;-4.90;99.90;;;;;;8227981;28;20022;-78
2023/02/11 05:11:23;;;;;;;24.90;9.45;;;-5.00;99.90;;;;;;8231253;28;20031;-78
2023/02/11 05:15:23;;;;;;;10.00;5.10;;;-5.00;99.90;;;;;;8224021;28;20122;-77
2023/02/11 05:19:24;;;;;;;22.65;9.82;;;-4.70;99.90;;;;;;8227888;28;20400;-78
2023/02/11 05:23:24;;;;;;;17.10;7.65;;;-4.70;99.90;;;;;;8225424;28;20692;-77
2023/02/11 05:27:25;;;;;;;23.55;8.75;;;-5.00;99.90;;;;;;8229445;28;20029;-77
2023/02/11 05:31:25;;;;;;;18.17;8.35;;;-5.10;99.90;;;;;;8231344;28;20027;-77
2023/02/11 05:35:26;;;;;;;19.80;9.80;;;-5.30;99.90;;;;;;8231568;28;20058;-78
2023/02/11 05:39:26;;;;;;;19.02;8.88;;;-5.10;99.90;;;;;;8231610;28;20073;-78
2023/02/11 05:43:27;;;;;;;15.27;6.93;;;-4.90;99.90;;;;;;8232426;28;20518;-78
2023/02/11 05:47:28;;;;;;;25.23;9.20;;;-4.80;99.90;;;;;;8229284;28;20118;-78
2023/02/11 05:51:28;;;;;;;17.10;8.80;;;-4.60;99.90;;;;;;8225040;28;20027;-78
2023/02/11 05:55:29;;;;;;;13.25;6.95;;;-4.30;99.90;;;;;;8221898;28;20027;-77
2023/02/11 05:59:29;;;;;;;15.77;7.60;;;-3.90;99.90;;;;;;8226185;28;20058;-77
2023/02/11 06:03:30;;;;;;;13.82;8.35;;;-3.80;99.90;;;;;;8229364;28;20026;-77
2023/02/11 06:07:30;;;;;;;16.65;7.78;;;-3.70;99.90;;;;;;8219714;28;20031;-76
2023/02/11 06:11:31;;;;;;;15.48;8.15;;;-3.50;99.90;;;;;;8230159;28;20035;-77
2023/02/11 06:15:32;;;;;;;11.75;5.38;;;-3.10;99.90;;;;;;8222937;28;20033;-77
2023/02/11 06:19:32;;;;;;;11.55;6.50;;;-2.80;99.90;;;;;;8224327;28;20026;-77
2023/02/11 06:23:33;;;;;;;15.20;7.35;;;-2.90;99.90;;;;;;8219883;28;20031;-76
2023/02/11 06:27:33;;;;;;;16.60;8.73;;;-3.00;99.90;;;;;;8221815;28;20439;-77
2023/02/11 06:31:36;;;;;;;16.63;9.20;;;-3.10;99.90;;;;;;8221016;28;20033;-76
2023/02/11 06:35:39;;;;;;;2.70;2.13;;;-3.30;99.90;;;;;;8229133;28;20034;-77
2023/02/11 06:39:40;;;;;;;16.73;8.23;;;-3.10;99.90;;;;;;8218681;28;20031;-77
2023/02/11 06:43:41;;;;;;;13.32;7.55;;;-3.20;99.90;;;;;;8226386;28;20058;-77
2023/02/11 06:47:41;;;;;;;21.08;9.27;;;-3.50;99.90;;;;;;8220366;28;20113;-77
2023/02/11 06:51:42;;;;;;;8.32;5.13;;;-3.60;99.90;;;;;;8222646;28;20023;-76
2023/02/11 06:55:42;;;;;;;12.57;6.90;;;-3.40;99.90;;;;;;8222166;28;20074;-77
2023/02/11 06:59:43;;;;;;;16.52;8.55;;;-3.10;99.90;;;;;;8228492;28;20105;-77
2023/02/11 07:03:44;;;;;;;18.58;7.40;;;-3.20;99.90;;;;;;8224919;28;20515;-77
2023/02/11 07:07:45;;;;;;;13.00;6.78;;;-3.10;99.90;;;;;;8223755;28;20142;-78
2023/02/11 07:11:46;;;;;;;13.18;7.45;;;-3.00;99.90;;;;;;8222062;28;20023;-78
2023/02/11 07:15:46;;;;;;;19.85;7.50;;;-2.50;99.90;;;;;;8222806;28;20019;-78
2023/02/11 07:19:47;;;;;;;19.17;8.70;;;-2.40;99.90;;;;;;8223217;28;20485;-77
2023/02/11 07:23:47;;;;;;;9.35;6.07;;;-2.50;99.90;;;;;;8223291;28;20058;-77
2023/02/11 07:27:49;;;;;;;24.70;10.10;;;-1.90;99.90;;;;;;8223563;28;20034;-78
2023/02/11 07:31:49;;;;;;;31.42;11.48;;;-1.50;99.90;;;;;;8224527;28;20081;-78
2023/02/11 07:35:50;;;;;;;22.20;10.73;;;-1.60;99.90;;;;;;8222068;28;20023;-77
2023/02/11 07:39:50;;;;;;;26.20;12.18;;;-1.10;99.90;;;;;;8228038;28;20027;-77
2023/02/11 07:43:51;;;;;;;22.85;10.35;;;-1.30;99.90;;;;;;8227271;28;20039;-78
2023/02/11 07:47:51;;;;;;;18.33;8.02;;;-1.30;99.90;;;;;;8231036;28;20046;-77
2023/02/11 07:51:52;;;;;;;15.50;9.07;;;-1.40;99.90;;;;;;8228310;28;20105;-78
2023/02/11 07:55:53;;;;;;;18.70;9.73;;;-0.90;99.90;;;;;;8233913;28;20130;-77
2023/02/11 07:59:53;;;;;;;23.80;12.80;;;-0.70;99.90;;;;;;8221383;28;20021;-77
2023/02/11 08:03:58;;;;;;;25.88;12.82;;;-0.70;99.90;;;;;;8227794;28;20031;-77
2023/02/11 08:07:59;;;;;;;26.85;12.73;;;-0.70;99.90;;;;;;8223640;28;20384;-76
2023/02/11 08:12:00;;;;;;;35.70;14.27;;;-0.30;99.90;;;;;;8229184;28;20027;-78
2023/02/11 08:16:01;;;;;;;23.55;11.77;;;0.00;99.90;;;;;;8229736;28;20027;-78
2023/02/11 08:20:03;;;;;;;23.13;10.68;;;0.20;99.90;;;;;;8228724;28;20046;-77
2023/02/11 08:24:04;;;;;;;27.55;11.30;;;0.50;99.90;;;;;;8229133;28;20065;-77
2023/02/11 08:28:04;;;;;;;25.10;12.18;;;0.30;99.90;;;;;;8229993;28;20019;-77
2023/02/11 08:32:05;;;;;;;31.15;13.02;;;0.20;99.90;;;;;;8233009;28;20491;-78
2023/02/11 08:36:11;;;;;;;28.83;13.65;;;0.00;99.90;;;;;;8225718;28;20498;-76
2023/02/11 08:40:12;;;;;;;30.50;14.07;;;0.30;99.90;;;;;;8227090;28;20909;-78
2023/02/11 08:44:12;;;;;;;32.58;13.43;;;0.90;99.90;;;;;;8223682;28;20106;-77
2023/02/11 08:48:13;;;;;;;20.60;10.32;;;1.40;99.90;;;;;;8224838;28;20058;-79
2023/02/11 08:52:13;;;;;;;26.23;12.02;;;1.60;99.90;;;;;;8226130;28;20023;-78
2023/02/11 08:56:16;;;;;;;28.73;13.35;;;1.90;99.90;;;;;;8230566;28;20023;-78
2023/02/11 09:00:17;;;;;;;26.15;10.93;;;2.00;99.90;;;;;;8230645;28;20027;-77
2023/02/11 09:04:18;;;;;;;34.00;15.73;;;2.10;99.90;;;;;;8228981;28;20069;-78
2023/02/11 09:08:19;;;;;;;28.48;12.98;;;2.10;99.90;;;;;;8231704;28;20046;-78
2023/02/11 09:12:20;;;;;;;29.40;13.52;;;2.60;99.90;;;;;;8229519;28;20030;-77
2023/02/11 09:16:24;;;;;;;27.85;12.77;;;3.20;99.90;;;;;;8223625;28;20172;-78
2023/02/11 09:20:26;;;;;;;26.92;13.02;;;3.40;99.90;;;;;;8228683;28;20030;-77
2023/02/11 09:24:26;;;;;;;24.88;13.15;;;3.50;99.90;;;;;;8228193;28;20023;-76
2023/02/11 09:28:27;;;;;;;6.15;3.90;;;3.80;99.90;;;;;;8217931;28;20526;-77
2023/02/11 09:32:27;;;;;;;27.27;11.65;;;3.60;99.90;;;;;;8215546;28;20633;-77
2023/02/11 09:36:30;;;;;;;26.98;13.60;;;3.40;99.90;;;;;;8217052;28;20039;-78
2023/02/11 09:40:32;;;;;;;18.15;8.45;;;3.90;99.90;;;;;;8216335;28;20390;-76
2023/02/11 09:44:35;;;;;;;28.50;12.45;;;4.80;99.90;;;;;;8224425;28;20027;-77
2023/02/11 09:48:40;;;;;;;27.67;11.43;;;5.30;99.90;;;;;;8218155;28;20102;-78
2023/02/11 09:52:46;;;;;;;21.95;12.00;;;5.50;99.90;;;;;;8219860;28;20483;-76
2023/02/11 09:56:46;;;;;;;22.35;11.20;;;5.30;99.90;;;;;;8225842;28;20034;-77
2023/02/11 10:01:05;;;;;;;22.67;11.48;;;5.40;99.90;;;;;;8217073;28;20051;-77
2023/02/11 10:05:28;;;;;;;23.95;12.10;;;5.30;99.90;;;;;;8225487;28;20035;-76
2023/02/11 10:09:53;;;;;;;25.90;12.95;;;5.30;99.90;;;;;;8218753;28;20023;-78
2023/02/11 10:13:53;;;;;;;22.92;11.68;;;5.40;99.90;;;;;;8216100;28;20035;-78
2023/02/11 10:18:21;;;;;;;23.35;12.20;;;5.10;99.90;;;;;;8223463;28;20188;-78
2023/02/11 10:22:53;;;;;;;24.05;10.38;;;5.50;99.90;;;;;;8220447;28;20030;-76
2023/02/11 10:26:53;;;;;;;;;;;6.40;99.90;;;;;;8215160;28;20031;-78
2023/02/11 10:30:58;;;;;;;18.92;10.05;;;7.10;99.90;;;;;;8216120;28;20015;-78
2023/02/11 10:35:11;;;;;;;26.80;12.50;;;8.00;99.90;;;;;;8224398;28;20039;-78
2023/02/11 10:39:16;;;;;;;23.30;12.85;;;8.30;99.90;;;;;;8226062;28;20034;-78
2023/02/11 10:43:20;;;;;;;26.25;13.00;;;8.10;99.90;;;;;;8231292;28;20689;-79
2023/02/11 10:47:24;;;;;;;23.13;12.20;;;7.60;99.90;;;;;;8228489;28;20398;-78
2023/02/11 10:51:32;;;;;;;30.40;12.38;;;7.40;99.90;;;;;;8228129;28;20030;-80
2023/02/11 10:55:34;;;;;;;26.27;11.88;;;7.40;99.90;;;;;;8225847;28;20085;-80
2023/02/11 10:59:39;;;;;;;24.65;11.57;;;7.50;99.90;;;;;;8226401;28;20077;-80
2023/02/11 11:03:47;;;;;;;21.58;10.93;;;8.10;99.90;;;;;;8219587;28;20086;-80
2023/02/11 11:07:57;;;;;;;23.55;11.65;;;8.60;99.90;;;;;;8225192;28;20046;-80
2023/02/11 11:11:57;;;;;;;23.50;11.90;;;9.40;99.90;;;;;;8221597;28;20023;-80
2023/02/11 11:16:13;;;;;;;23.38;11.95;;;9.10;99.90;;;;;;8221835;28;20031;-80
2023/02/11 11:20:20;;;;;;;23.73;12.25;;;8.80;99.90;;;;;;8220581;28;20082;-80
2023/02/11 11:24:28;;;;;;;23.77;11.85;;;8.50;99.90;;;;;;8222888;28;20682;-80
2023/02/11 11:28:37;;;;;;;23.05;12.38;;;8.40;99.90;;;;;;8225533;28;20034;-81
2023/02/11 11:32:41;;;;;;;28.58;13.50;;;8.10;99.90;;;;;;8235964;23;20047;-81
2023/02/11 11:36:42;;;;;;;24.38;12.52;;;7.80;99.90;;;;;;8225975;28;20030;-80
2023/02/11 11:40:43;;;;;;;26.83;12.10;;;7.50;99.90;;;;;;8226751;28;20113;-80
2023/02/11 11:45:00;;;;;;;25.75;13.63;;;8.90;99.90;;;;;;8231104;28;20027;-80
2023/02/11 11:49:06;;;;;;;25.85;13.50;;;10.80;99.90;;;;;;8229719;28;20027;-80
2023/02/11 11:53:26;;;;;;;27.83;11.38;;;10.10;99.90;;;;;;8229194;28;20062;-80
2023/02/11 11:57:28;;;;;;;30.80;14.03;;;9.00;99.90;;;;;;8229086;28;20031;-79
2023/02/11 12:01:49;;;;;;;27.10;13.10;;;8.20;99.90;;;;;;8227240;28;20317;-80
2023/02/11 12:06:08;;;;;;;;;;;8.10;99.90;;;;;;8230365;28;20498;-80
2023/02/11 12:10:34;;;;;;;61.00;26.75;;;8.30;99.90;;;;;;8225410;28;19913;-80
2023/02/11 12:14:54;;;;;;;32.55;15.15;;;9.60;99.90;;;;;;8228678;28;20027;-79
2023/02/11 12:19:36;;;;;;;23.45;12.10;;;10.70;99.90;;;;;;8228468;28;20023;-78
2023/02/11 12:24:08;;;;;;;27.55;14.85;;;11.70;99.90;;;;;;8224298;28;20047;-80
2023/02/11 12:28:20;;;;;;;28.50;13.65;;;12.80;99.90;;;;;;8228663;28;20511;-80
2023/02/11 12:32:43;;;;;;;26.15;13.80;;;13.80;97.20;;;;;;8231471;28;20037;-80
2023/02/11 12:36:56;;;;;;;27.65;13.50;;;14.30;95.00;;;;;;8227455;28;20027;-79
2023/02/11 12:46:33;;;;;;;22.60;12.07;;;14.20;92.00;;;;;;8226661;28;20066;-78
2023/02/11 12:51:04;;;;;;;23.15;12.27;;;12.60;91.90;;;;;;8201462;28;20479;-77
2023/02/11 12:55:37;;;;;;;18.92;10.32;;;9.80;98.40;;;;;;8219220;28;20038;-78
2023/02/11 12:59:54;;;;;;;21.27;10.82;;;8.50;99.50;;;;;;8211266;28;20518;-79
2023/02/11 13:04:27;;;;;;;21.05;10.88;;;7.90;99.90;;;;;;8224484;28;20038;-80
2023/02/11 13:08:32;;;;;;;21.67;11.25;;;7.60;99.90;;;;;;8227929;28;20482;-80
2023/02/11 13:16:57;;;;;;;25.92;11.23;;;7.40;99.90;;;;;;8226270;28;20147;-79
2023/02/11 13:21:09;;;;;;;21.33;10.10;;;7.40;99.90;;;;;;8222038;28;20162;-79
2023/02/11 13:25:18;;;;;;;23.55;11.90;;;7.40;99.90;;;;;;8240468;28;20030;-78
2023/02/11 13:29:57;;;;;;;21.88;11.15;;;7.70;99.90;;;;;;8220735;28;20097;-79
2023/02/11 13:33:58;;;;;;;22.30;10.93;;;7.80;99.90;;;;;;8220325;28;20039;-80
2023/02/11 13:38:15;;;;;;;24.10;10.93;;;8.00;99.90;;;;;;8212521;28;20097;-80
2023/02/11 13:42:17;;;;;;;19.83;11.38;;;8.20;99.90;;;;;;8216826;28;20030;-80
2023/02/11 13:46:18;;;;;;;21.30;9.70;;;8.20;99.90;;;;;;8227277;28;20073;-79
2023/02/11 13:50:24;;;;;;;24.58;11.13;;;8.00;99.90;;;;;;8232085;28;20058;-80
2023/02/11 13:54:37;;;;;;;22.92;11.18;;;7.80;99.90;;;;;;8232592;28;20105;-80
2023/02/11 13:58:49;;;;;;;19.40;9.73;;;8.00;99.90;;;;;;8218314;28;20023;-79
2023/02/11 14:12:29;;;;;;;25.48;10.80;;;9.10;99.90;;;;;;8231304;28;20062;-79
2023/02/11 14:16:29;;;;;;;28.00;12.35;;;9.10;99.90;;;;;;8225365;28;20046;-79
2023/02/11 14:20:35;;;;;;;25.55;11.65;;;9.10;99.90;;;;;;8229208;28;20110;-80
2023/02/11 14:24:35;;;;;;;26.85;12.65;;;9.20;99.90;;;;;;8224718;28;20037;-80
2023/02/11 14:28:37;;;;;;;23.77;12.43;;;9.20;99.90;;;;;;8229139;28;20027;-79
2023/02/11 14:32:51;;;;;;;26.25;12.95;;;9.40;99.90;;;;;;8228734;28;20562;-79
2023/02/11 14:37:01;;;;;;;25.83;12.38;;;9.50;99.90;;;;;;8228647;28;20023;-78
2023/02/11 14:41:17;;;;;;;25.08;13.68;;;9.60;99.90;;;;;;8225588;28;20418;-79
2023/02/11 14:45:23;;;;;;;21.17;12.15;;;9.60;99.90;;;;;;8227220;28;20038;-79
2023/02/11 14:49:32;;;;;;;23.70;12.05;;;9.50;99.90;;;;;;8228763;28;20027;-79
2023/02/11 14:53:33;;;;;;;25.55;12.73;;;9.30;99.90;;;;;;8227619;28;20086;-79
2023/02/11 14:57:36;;;;;;;23.27;12.77;;;9.30;99.90;;;;;;8229211;28;20019;-79
2023/02/11 15:01:40;;;;;;;24.05;12.43;;;8.90;99.90;;;;;;8228085;28;20041;-80
2023/02/11 15:05:41;;;;;;;29.75;14.23;;;8.70;99.90;;;;;;8226935;28;20116;-80
2023/02/11 15:09:48;;;;;;;24.73;12.73;;;8.50;99.90;;;;;;8229907;28;20038;-79
2023/02/11 15:13:50;;;;;;;24.67;12.85;;;8.30;99.90;;;;;;8226847;28;20026;-79
2023/02/11 15:17:51;;;;;;;28.88;13.82;;;8.20;99.90;;;;;;8227217;28;20026;-79
2023/02/11 15:21:52;;;;;;;25.23;13.07;;;8.10;99.90;;;;;;8226022;28;20015;-78
2023/02/11 15:25:55;;;;;;;26.92;12.90;;;8.10;99.90;;;;;;8227057;28;20038;-79
2023/02/11 15:29:55;;;;;;;26.75;13.80;;;7.90;99.90;;;;;;8228048;28;20515;-80
2023/02/11 15:34:06;;;;;;;25.77;13.32;;;7.70;99.90;;;;;;8228589;28;20039;-80
2023/02/11 15:38:11;;;;;;;26.42;12.88;;;7.50;99.90;;;;;;8226799;28;20038;-79
2023/02/11 15:42:30;;;;;;;25.25;13.27;;;7.30;99.90;;;;;;8228234;28;20030;-78
2023/02/11 15:46:38;;;;;;;25.52;13.05;;;6.90;99.90;;;;;;8229078;28;20023;-80
2023/02/11 15:50:41;;;;;;;27.80;14.20;;;6.60;99.90;;;;;;8243108;28;20055;-81
2023/02/11 15:54:46;;;;;;;27.05;12.70;;;6.40;99.90;;;;;;8229667;28;20106;-81
2023/02/11 15:58:48;;;;;;;26.13;11.48;;;6.30;99.90;;;;;;8229615;28;20536;-80
2023/02/11 16:02:49;;;;;;;25.83;13.23;;;6.40;99.90;;;;;;8229871;28;20026;-80
2023/02/11 16:06:51;;;;;;;31.92;13.32;;;6.10;99.90;;;;;;8232125;28;20055;-83
2023/02/11 16:10:58;;;;;;;24.15;12.02;;;5.80;99.90;;;;;;8238849;28;20054;-82
2023/02/11 16:15:18;;;;;;;26.02;12.75;;;5.50;99.90;;;;;;8240542;28;20027;-83
2023/02/11 16:19:21;;;;;;;25.02;12.65;;;5.50;99.90;;;;;;8237302;28;20033;-83
2023/02/11 16:23:34;;;;;;;27.48;12.48;;;5.40;99.90;;;;;;8236450;28;20090;-83
2023/02/11 16:27:40;;;;;;;29.23;12.80;;;5.10;99.90;;;;;;8236045;28;20034;-83
2023/02/11 16:31:46;;;;;;;29.42;12.55;;;5.00;99.90;;;;;;8234894;28;20039;-82
2023/02/11 16:35:47;;;;;;;25.52;12.15;;;4.70;99.90;;;;;;8236092;28;20030;-80
2023/02/11 16:39:48;;;;;;;24.85;12.63;;;4.70;99.90;;;;;;8237282;28;20463;-81
2023/02/11 16:43:48;;;;;;;24.80;12.77;;;4.60;99.90;;;;;;8235892;28;20476;-81
2023/02/11 16:47:49;;;;;;;25.83;12.07;;;4.30;99.90;;;;;;8235711;28;20031;-80
2023/02/11 16:51:52;;;;;;;22.27;11.73;;;4.10;99.90;;;;;;8234874;28;20030;-80
2023/02/11 16:55:53;;;;;;;28.88;12.43;;;3.60;99.90;;;;;;8233218;28;20608;-80
2023/02/11 16:59:53;;;;;;;25.80;13.02;;;3.70;99.90;;;;;;8236598;28;20019;-80
2023/02/11 17:03:54;;;;;;;25.85;12.15;;;3.30;99.90;;;;;;8236657;28;20082;-80
2023/02/11 17:07:54;;;;;;;30.50;13.20;;;2.80;99.90;;;;;;8236343;28;20033;-80
2023/02/11 17:11:55;;;;;;;31.50;14.32;;;2.40;99.90;;;;;;8234547;28;20034;-80
2023/02/11 17:15:55;;;;;;;26.90;13.43;;;2.30;99.90;;;;;;8235036;28;20399;-80
2023/02/11 17:19:56;;;;;;;30.30;13.13;;;2.00;99.90;;;;;;8233511;28;20033;-80
2023/02/11 17:23:57;;;;;;;36.45;14.05;;;1.80;99.90;;;;;;8235256;28;20034;-80
2023/02/11 17:27:58;;;;;;;26.58;13.00;;;1.50;99.90;;;;;;8236702;28;20110;-80
2023/02/11 17:31:59;;;;;;;27.45;12.82;;;1.40;99.90;;;;;;8233812;28;20049;-80
2023/02/11 17:36:03;;;;;;;23.90;11.45;;;1.30;99.90;;;;;;8233871;28;20023;-79
2023/02/11 17:40:05;;;;;;;24.45;11.40;;;1.30;99.90;;;;;;8234414;28;20031;-80
2023/02/11 17:44:07;;;;;;;23.50;11.63;;;1.20;99.90;;;;;;8231671;28;20082;-77
2023/02/11 17:48:07;;;;;;;27.95;11.57;;;1.20;99.90;;;;;;8232524;28;20038;-80
2023/02/11 17:52:08;;;;;;;22.55;11.20;;;1.20;99.90;;;;;;8232318;28;20035;-78
2023/02/11 17:56:09;;;;;;;25.20;13.07;;;1.20;99.90;;;;;;8231396;28;20069;-78
2023/02/11 18:00:10;;;;;;;31.98;12.82;;;1.20;99.90;;;;;;8231603;28;20191;-79
2023/02/11 18:04:17;;;;;;;31.15;13.85;;;1.20;99.90;;;;;;8230394;28;20266;-79
2023/02/11 18:08:18;;;;;;;27.40;12.00;;;1.30;99.90;;;;;;8232651;28;20027;-80
2023/02/11 18:12:24;;;;;;;23.98;11.60;;;1.50;99.90;;;;;;8232892;28;20031;-79
2023/02/11 18:16:27;;;;;;;27.98;12.10;;;1.80;99.90;;;;;;8231503;28;20104;-80
2023/02/11 18:20:28;;;;;;;34.83;12.60;;;1.50;99.90;;;;;;8231852;28;20046;-80
2023/02/11 18:24:28;;;;;;;25.08;11.55;;;1.40;99.90;;;;;;8231755;28;20031;-80
2023/02/11 18:28:29;;;;;;;22.00;11.27;;;1.40;99.90;;;;;;8231088;28;20458;-79
2023/02/11 18:32:30;;;;;;;24.20;10.25;;;1.40;99.90;;;;;;8231783;28;20035;-80
2023/02/11 18:36:30;;;;;;;26.35;10.65;;;1.50;99.90;;;;;;8231628;28;20495;-80
2023/02/11 18:40:31;;;;;;;22.60;12.07;;;1.20;99.90;;;;;;8231082;28;20025;-80
2023/02/11 18:44:31;;;;;;;26.42;12.18;;;1.10;99.90;;;;;;8231212;28;20163;-80
2023/02/11 18:48:32;;;;;;;25.95;12.77;;;1.10;99.90;;;;;;8228829;28;20026;-78
2023/02/11 18:52:35;;;;;;;33.33;14.77;;;1.20;99.90;;;;;;8232049;28;20069;-80
2023/02/11 18:56:36;;;;;;;32.88;15.07;;;1.20;99.90;;;;;;8233313;28;20027;-80
2023/02/11 19:00:39;;;;;;;32.45;15.60;;;1.30;99.90;;;;;;8232143;28;20023;-79
2023/02/11 19:04:40;;;;;;;34.13;13.98;;;1.50;99.90;;;;;;8230177;28;20025;-79
2023/02/11 19:08:41;;;;;;;34.17;14.23;;;1.30;99.90;;;;;;8231216;28;20027;-79
2023/02/11 19:12:41;;;;;;;32.45;14.13;;;1.30;99.90;;;;;;8231248;28;20037;-78
2023/02/11 19:16:43;;;;;;;36.33;14.75;;;1.30;99.90;;;;;;8230947;28;20050;-79
2023/02/11 19:20:44;;;;;;;27.95;13.63;;;1.40;99.90;;;;;;8230840;28;20018;-79
2023/02/11 19:24:45;;;;;;;31.48;13.43;;;1.40;99.90;;;;;;8231062;28;20030;-78
2023/02/11 19:28:45;;;;;;;31.90;13.30;;;1.30;99.90;;;;;;8231757;28;20466;-78
2023/02/11 19:32:51;;;;;;;30.42;12.68;;;1.40;99.90;;;;;;8231893;28;20035;-80
2023/02/11 19:36:53;;;;;;;26.77;13.30;;;1.30;99.90;;;;;;8230119;28;20070;-78
2023/02/11 19:40:59;;;;;;;26.48;13.27;;;1.30;99.90;;;;;;8226349;28;20045;-79
2023/02/11 19:45:00;;;;;;;28.58;13.88;;;1.40;99.90;;;;;;8236471;28;20039;-80
2023/02/11 19:49:02;;;;;;;31.65;12.93;;;1.30;99.90;;;;;;8237605;28;20511;-78
2023/02/11 19:53:02;;;;;;;32.50;12.90;;;1.60;99.90;;;;;;8236962;28;20399;-80
2023/02/11 19:57:03;;;;;;;29.50;13.13;;;1.50;99.90;;;;;;8236651;28;20023;-80
2023/02/11 20:01:15;;;;;;;30.25;13.35;;;1.60;99.90;;;;;;8235660;28;20023;-79
2023/02/11 20:05:15;;;;;;;49.13;20.75;;;1.50;99.90;;;;;;8235840;28;20074;-80
2023/02/11 20:09:16;;;;;;;36.60;16.70;;;1.20;99.90;;;;;;8237231;28;20023;-79
2023/02/11 20:13:16;;;;;;;39.03;16.70;;;1.20;99.90;;;;;;8235654;28;20029;-79
2023/02/11 20:17:17;;;;;;;40.30;17.60;;;1.20;99.90;;;;;;8235732;28;20033;-79
2023/02/11 20:21:24;;;;;;;39.10;15.63;;;1.10;99.90;;;;;;8236256;28;20018;-80
2023/02/11 20:25:25;;;;;;;26.50;12.93;;;1.30;99.90;;;;;;8235049;28;20027;-80
2023/02/11 20:29:26;;;;;;;34.28;15.18;;;1.60;99.90;;;;;;8235640;28;20121;-80
2023/02/11 20:33:28;;;;;;;42.00;16.77;;;1.70;99.90;;;;;;8236391;28;20030;-79
2023/02/11 20:37:29;;;;;;;39.63;16.75;;;1.40;99.90;;;;;;8235676;28;20026;-78
2023/02/11 20:41:33;;;;;;;36.28;17.33;;;1.30;99.90;;;;;;8235104;28;20018;-78
2023/02/11 20:45:34;;;;;;;32.85;15.48;;;1.10;99.90;;;;;;8234530;28;20026;-79
2023/02/11 20:49:34;;;;;;;30.13;15.35;;;1.10;99.90;;;;;;8235183;28;20031;-79
2023/02/11 20:53:37;;;;;;;45.08;16.45;;;1.20;99.90;;;;;;8235921;28;20031;-80
2023/02/11 20:57:38;;;;;;;31.58;14.50;;;1.30;99.90;;;;;;8234617;28;20037;-80
2023/02/11 21:01:42;;;;;;;32.17;15.25;;;1.30;99.90;;;;;;8232544;28;20497;-80
2023/02/11 21:05:43;;;;;;;32.22;14.48;;;1.30;99.90;;;;;;8233462;28;20042;-80
2023/02/11 21:09:43;;;;;;;35.45;15.88;;;1.30;99.90;;;;;;8235390;28;20073;-80
2023/02/11 21:13:44;;;;;;;35.15;16.33;;;1.30;99.90;;;;;;8233963;28;20022;-80
2023/02/11 21:17:44;;;;;;;35.83;16.58;;;1.50;99.90;;;;;;8235400;28;20467;-79
2023/02/11 21:21:45;;;;;;;39.15;16.38;;;1.60;99.90;;;;;;8234340;28;20529;-80
2023/02/11 21:25:46;;;;;;;33.35;15.23;;;1.60;99.90;;;;;;8234131;28;20030;-80